Time;durP1;ratioP1;P1;durP2;ratioP2;P2;SDS_P1;SDS_P2;PMS_P1;PMS_P2;Temp;Humidity;BMP_temperature;BMP_pressure;BME280_temperature;BME280_humidity;BME280_pressure;Samples;Min_cycle;Max_cycle;Signal;HPM_P1;HPM_P2
2021/12/04 00:02:08;;;;;;;1.23;1.13;;;;;;;5.73;62.25;99332.47;4977316;28;20089;-66
2021/12/04 00:04:54;;;;;;;2.22;1.55;;;;;;;5.76;62.03;99335.66;4976016;28;20089;-66
2021/12/04 00:07:38;;;;;;;2.25;1.80;;;;;;;5.74;62.29;99321.75;4975710;28;20125;-65
2021/12/04 00:10:27;;;;;;;2.67;1.60;;;;;;;5.78;62.54;99314.38;5006798;22;20058;-64
2021/12/04 00:13:12;;;;;;;2.88;1.65;;;;;;;5.75;62.10;99326.06;5021299;28;20553;-60
2021/12/04 00:15:55;;;;;;;2.33;1.75;;;;;;;5.76;62.20;99322.44;5020455;28;20048;-61
2021/12/04 00:18:39;;;;;;;;;;;;;;;5.79;61.81;99316.94;5020872;28;20075;-61
2021/12/04 00:21:23;;;;;;;1.70;1.60;;;;;;;5.77;61.65;99318.81;5034316;28;20432;-61
2021/12/04 00:24:07;;;;;;;;;;;;;;;5.83;62.46;99317.50;5020789;28;20317;-61
2021/12/04 00:26:53;;;;;;;4.40;2.03;;;;;;;5.83;63.53;99301.63;5034385;28;19924;-61
2021/12/04 00:29:37;;;;;;;20.63;2.13;;;;;;;5.80;64.21;99291.31;5035362;28;20056;-61
2021/12/04 00:32:28;;;;;;;1.52;1.15;;;;;;;5.77;65.99;99302.94;5034937;28;20083;-61
2021/12/04 00:50:19;;;;;;;2.03;1.48;;;;;;;5.59;75.12;99267.59;5034764;28;20056;-61
2021/12/04 00:53:03;;;;;;;3.60;1.77;;;;;;;5.43;78.96;99261.19;5019751;28;20129;-61
2021/12/04 00:55:47;;;;;;;2.67;1.88;;;;;;;5.32;82.12;99245.44;5034990;28;20144;-61
2021/12/04 00:58:31;;;;;;;3.53;1.77;;;;;;;5.16;85.35;99250.41;5034870;28;20060;-61
2021/12/04 01:01:16;;;;;;;3.60;1.67;;;;;;;4.97;89.77;99236.31;5034496;28;20099;-61
2021/12/04 01:03:59;;;;;;;3.78;1.90;;;;;;;4.82;94.23;99237.63;5019678;28;20052;-61
2021/12/04 01:06:44;;;;;;;4.40;2.30;;;;;;;4.63;99.84;99224.34;5006018;28;20103;-61
2021/12/04 01:09:28;;;;;;;2.80;2.25;;;;;;;4.54;100.00;99223.34;5019308;28;20063;-60
2021/12/04 01:12:13;;;;;;;2.58;2.30;;;;;;;4.37;100.00;99215.22;5018386;28;20048;-60
2021/12/04 01:14:56;;;;;;;2.88;2.33;;;;;;;4.38;100.00;99201.03;5019392;28;20045;-61
2021/12/04 01:17:40;;;;;;;3.38;2.50;;;;;;;4.32;100.00;99207.69;5034340;28;20064;-61
2021/12/04 01:20:24;;;;;;;5.95;2.70;;;;;;;4.23;100.00;99200.56;5034396;28;20110;-60
2021/12/04 01:23:08;;;;;;;4.13;2.38;;;;;;;4.15;100.00;99204.81;5034095;28;20068;-59
2021/12/04 01:25:52;;;;;;;4.03;2.65;;;;;;;4.12;100.00;99205.03;5034152;28;20056;-59
2021/12/04 01:28:36;;;;;;;4.38;3.38;;;;;;;4.14;100.00;99203.09;5034513;28;20048;-61
2021/12/04 01:31:20;;;;;;;4.00;2.63;;;;;;;4.11;100.00;99195.47;5033942;28;20096;-61
2021/12/04 01:34:04;;;;;;;3.05;2.75;;;;;;;4.19;100.00;99190.38;5033103;28;20048;-61
2021/12/04 01:36:48;;;;;;;4.07;3.15;;;;;;;4.17;100.00;99185.22;5033846;28;20095;-61
2021/12/04 01:39:31;;;;;;;7.32;3.65;;;;;;;4.19;100.00;99174.56;5018994;28;20136;-58
2021/12/04 01:42:20;;;;;;;;;;;;;;;4.26;100.00;99170.44;5019344;28;20096;-61
2021/12/04 01:45:05;;;;;;;4.47;3.03;;;;;;;4.23;100.00;99173.31;5033699;28;19919;-61
2021/12/04 01:47:49;;;;;;;7.40;3.08;;;;;;;4.24;100.00;99164.44;5033889;28;20055;-57
2021/12/04 01:50:33;;;;;;;;;;;;;;;4.34;100.00;99152.97;5034034;28;20131;-61
2021/12/04 01:53:18;;;;;;;6.22;2.90;;;;;;;4.24;100.00;99146.81;5019027;28;19963;-61
2021/12/04 01:56:03;;;;;;;5.70;3.42;;;;;;;4.30;100.00;99148.09;5033735;28;20052;-60
2021/12/04 01:58:47;;;;;;;5.88;3.10;;;;;;;4.29;100.00;99134.06;5018604;28;20052;-60
2021/12/04 02:01:33;;;;;;;3.38;3.00;;;;;;;4.32;100.00;99135.59;5018554;28;20568;-60
2021/12/04 02:04:17;;;;;;;7.75;3.30;;;;;;;4.37;100.00;99130.78;5033515;28;20052;-61
2021/12/04 02:07:03;;;;;;;;;;;;;;;4.39;100.00;99136.75;5033950;28;20418;-60
2021/12/04 02:09:48;;;;;;;4.28;3.03;;;;;;;4.35;100.00;99133.53;5033705;28;20181;-61
2021/12/04 02:12:32;;;;;;;6.95;3.33;;;;;;;4.40;100.00;99135.78;5018208;28;20104;-61
2021/12/04 02:15:16;;;;;;;;;;;;;;;4.46;100.00;99124.72;5019078;28;20100;-58
2021/12/04 02:18:02;;;;;;;4.32;3.10;;;;;;;4.41;100.00;99111.06;5018155;28;19979;-60
2021/12/04 02:20:48;;;;;;;6.32;3.45;;;;;;;4.48;100.00;99112.22;5018498;28;20048;-61
2021/12/04 02:23:33;;;;;;;6.22;3.55;;;;;;;4.50;100.00;99102.34;5017365;28;20107;-61
2021/12/04 02:26:17;;;;;;;8.57;3.10;;;;;;;4.55;100.00;99108.91;5033455;28;20052;-61
2021/12/04 02:29:01;;;;;;;7.05;3.97;;;;;;;4.54;100.00;99106.38;5033064;28;20418;-61
2021/12/04 02:31:53;;;;;;;;;;;;;;;4.59;100.00;99104.19;5018484;28;20087;-61
2021/12/04 02:34:38;;;;;;;4.82;3.83;;;;;;;4.62;100.00;99090.72;5032815;28;19939;-61
2021/12/04 02:37:22;;;;;;;7.00;3.72;;;;;;;4.61;100.00;99089.91;5018240;28;20447;-61
2021/12/04 02:40:10;;;;;;;7.95;3.47;;;;;;;4.68;100.00;99088.34;5033017;28;20130;-61
2021/12/04 02:42:54;;;;;;;4.05;3.05;;;;;;;4.63;100.00;99079.19;5017714;28;20052;-61
2021/12/04 02:45:38;;;;;;;5.40;3.90;;;;;;;4.65;100.00;99074.59;5017640;28;20119;-61
2021/12/04 02:48:22;;;;;;;6.70;3.83;;;;;;;4.70;100.00;99064.47;5017779;28;20083;-61
2021/12/04 02:51:06;;;;;;;4.63;3.20;;;;;;;4.70;100.00;99060.00;5017538;28;20072;-61
2021/12/04 02:53:50;;;;;;;5.18;3.47;;;;;;;4.75;100.00;99051.69;5032566;28;20099;-61
2021/12/04 02:56:34;;;;;;;7.07;3.95;;;;;;;4.79;100.00;99051.28;5032523;28;20048;-61
2021/12/04 02:59:18;;;;;;;6.47;4.28;;;;;;;4.83;100.00;99043.91;5032480;28;20052;-61
2021/12/04 03:02:06;;;;;;;7.68;4.38;;;;;;;4.89;100.00;99032.81;5032404;28;20049;-60
2021/12/04 03:04:57;;;;;;;6.68;3.80;;;;;;;4.92;100.00;99029.91;5017611;28;20052;-61
2021/12/04 03:07:41;;;;;;;5.47;3.85;;;;;;;4.90;100.00;99016.00;5032383;28;20414;-61
2021/12/04 03:10:25;;;;;;;5.50;4.00;;;;;;;4.92;100.00;99006.97;5032446;28;20052;-61
2021/12/04 03:13:10;;;;;;;6.47;4.13;;;;;;;4.93;100.00;99009.47;5032364;28;20069;-61
2021/12/04 03:16:00;;;;;;;4.55;3.90;;;;;;;4.96;100.00;98997.78;5017703;28;20053;-60
2021/12/04 03:18:44;;;;;;;5.88;4.07;;;;;;;4.98;100.00;99004.63;5032546;28;20053;-61
2021/12/04 03:21:28;;;;;;;7.28;4.30;;;;;;;5.02;100.00;98997.25;5032181;28;20052;-61
2021/12/04 03:24:14;;;;;;;4.57;3.72;;;;;;;5.01;100.00;98990.31;5017516;28;20052;-60
2021/12/04 03:26:58;;;;;;;7.40;4.32;;;;;;;5.00;100.00;98983.31;5032481;28;20052;-61
2021/12/04 03:29:47;;;;;;;5.80;4.22;;;;;;;5.02;100.00;98971.66;5017562;28;20199;-61
2021/12/04 03:32:55;;;;;;;7.85;5.50;;;;;;;5.03;100.00;98967.22;5032386;28;20057;-61
2021/12/04 03:41:37;;;;;;;7.45;5.07;;;;;;;5.02;100.00;98955.81;5035916;28;20123;-61
2021/12/04 03:44:21;;;;;;;;;;;;;;;5.06;100.00;98957.22;5021575;28;20052;-61
2021/12/04 03:47:07;;;;;;;7.87;5.60;;;;;;;5.02;100.00;98947.88;5035041;28;19920;-61
2021/12/04 03:49:51;;;;;;;7.40;5.30;;;;;;;5.05;100.00;98938.84;5021023;28;20072;-61
2021/12/04 03:52:36;;;;;;;7.85;4.85;;;;;;;5.06;100.00;98929.94;5021313;28;20391;-61
2021/12/04 03:55:20;;;;;;;10.55;6.90;;;;;;;5.04;100.00;98921.34;5007118;28;20122;-60
2021/12/04 03:58:04;;;;;;;11.95;6.93;;;;;;;5.08;100.00;98918.28;5021134;28;20052;-61
2021/12/04 04:00:49;;;;;;;12.93;7.65;;;;;;;5.12;100.00;98914.38;5035505;28;20071;-61
2021/12/04 04:03:33;;;;;;;10.32;7.20;;;;;;;5.10;100.00;98911.03;5035895;28;20099;-59
2021/12/04 04:06:17;;;;;;;;;;;;;;;5.14;100.00;98912.41;5036188;28;20048;-61
2021/12/04 04:09:03;;;;;;;10.63;6.80;;;;;;;5.12;100.00;98902.97;5020479;28;20106;-61
2021/12/04 04:11:47;;;;;;;10.43;6.78;;;;;;;5.08;100.00;98904.22;5035236;28;20321;-61
2021/12/04 04:14:32;;;;;;;11.20;7.38;;;;;;;5.03;100.00;98894.09;5035556;28;20125;-61
2021/12/04 04:17:16;;;;;;;9.00;6.15;;;;;;;5.04;100.00;98889.66;5020634;28;20051;-61
2021/12/04 04:20:00;;;;;;;9.30;6.78;;;;;;;5.02;100.00;98897.72;5035204;28;20548;-61
2021/12/04 04:22:45;;;;;;;10.80;6.93;;;;;;;5.04;100.00;98885.19;5020192;28;20068;-61
2021/12/04 04:25:28;;;;;;;11.98;7.07;;;;;;;5.02;100.00;98887.13;5020069;28;20104;-61
2021/12/04 04:28:12;;;;;;;10.15;7.05;;;;;;;5.01;100.00;98884.66;5035302;28;20048;-61
2021/12/04 04:30:56;;;;;;;8.95;6.47;;;;;;;5.01;100.00;98885.47;5035183;28;20048;-61
2021/12/04 04:33:43;;;;;;;11.40;6.28;;;;;;;5.00;100.00;98873.25;5020004;28;20099;-61
2021/12/04 04:58:03;;;;;;;7.75;5.60;;;;;;;4.91;100.00;98849.53;5022298;28;20131;-61
2021/12/04 05:00:37;;;;;;;7.70;5.93;;;;;;;4.95;100.00;98843.78;5034674;28;20465;-61
2021/12/04 05:13:17;;;;;;;5.75;4.68;;;;;;;4.97;100.00;98834.91;5021752;28;20053;-61
2021/12/04 05:18:38;;;;;;;7.97;5.75;;;;;;;4.91;100.00;98831.03;5022388;28;20087;-61
2021/12/04 05:21:22;;;;;;;7.68;5.45;;;;;;;4.85;100.00;98836.03;5034094;28;20049;-61
2021/12/04 05:24:06;;;;;;;8.25;5.70;;;;;;;4.84;100.00;98829.94;5019021;28;20134;-61
2021/12/04 05:26:50;;;;;;;6.88;5.25;;;;;;;4.83;100.00;98824.78;5034313;28;20091;-61
2021/12/04 05:29:35;;;;;;;7.28;5.45;;;;;;;4.85;100.00;98828.13;5019185;28;20052;-61
2021/12/04 05:32:19;;;;;;;7.63;5.30;;;;;;;4.75;100.00;98819.38;5018856;28;20133;-61
2021/12/04 05:35:04;;;;;;;;;;;;;;;4.78;100.00;98829.69;5034571;28;20076;-61
2021/12/04 05:37:48;;;;;;;8.65;5.28;;;;;;;4.84;100.00;98818.53;5032777;28;19920;-61
2021/12/04 05:40:32;;;;;;;9.38;5.72;;;;;;;4.84;100.00;98823.81;5033926;28;20061;-61
2021/12/04 05:43:18;;;;;;;8.98;6.53;;;;;;;4.80;100.00;98817.16;5033966;28;20048;-61
2021/12/04 05:46:16;;;;;;;10.10;6.28;;;;;;;4.78;100.00;98808.56;5033824;28;20048;-61
2021/12/04 05:49:04;;;;;;;12.40;6.18;;;;;;;4.69;100.00;98809.41;5020566;28;20095;-61
2021/12/04 05:52:04;;;;;;;8.50;6.10;;;;;;;4.74;100.00;98812.44;5033427;28;20092;-61
2021/12/04 05:57:51;;;;;;;10.43;5.93;;;;;;;4.73;100.00;98800.22;5021190;28;20119;-61
2021/12/04 06:00:35;;;;;;;10.68;5.53;;;;;;;4.67;100.00;98803.47;5033619;28;20462;-61
2021/12/04 06:03:19;;;;;;;;;;;;;;;4.77;100.00;98801.63;5033727;28;20099;-61
2021/12/04 06:06:03;;;;;;;7.35;5.25;;;;;;;4.68;100.00;98813.03;5018655;28;19920;-61
2021/12/04 06:08:47;;;;;;;8.25;5.20;;;;;;;4.67;100.00;98795.53;5018295;28;20052;-61
2021/12/04 06:11:33;;;;;;;9.57;6.05;;;;;;;4.65;100.00;98792.19;5018088;28;20051;-61
2021/12/04 06:14:17;;;;;;;8.52;6.13;;;;;;;4.63;100.00;98787.06;5018223;28;20088;-61
2021/12/04 06:17:01;;;;;;;10.30;5.95;;;;;;;4.60;100.00;98795.28;5033333;28;20087;-60
2021/12/04 06:22:50;;;;;;;9.30;5.97;;;;;;;4.68;100.00;98786.66;4992209;28;20505;-61
2021/12/04 06:25:35;;;;;;;9.45;6.20;;;;;;;4.66;100.00;98784.13;5033190;28;20049;-61
2021/12/04 06:28:19;;;;;;;7.65;5.65;;;;;;;4.70;100.00;98782.03;5032971;28;20139;-61
2021/12/04 06:31:07;;;;;;;8.57;5.95;;;;;;;4.73;100.00;98776.47;5018001;28;20049;-61
2021/12/04 06:33:51;;;;;;;9.02;6.50;;;;;;;4.71;100.00;98786.34;5032853;28;20052;-61
2021/12/04 06:36:37;;;;;;;9.40;6.75;;;;;;;4.68;100.00;98776.09;5004237;28;20047;-61
2021/12/04 06:39:21;;;;;;;12.00;8.00;;;;;;;4.65;100.00;98786.91;5018157;28;20481;-61
2021/12/04 06:42:06;;;;;;;10.23;7.60;;;;;;;4.58;100.00;98783.19;5017843;28;20461;-61
2021/12/04 06:44:53;;;;;;;11.65;7.85;;;;;;;4.62;100.00;98779.28;5032889;28;20056;-60
2021/12/04 06:47:39;;;;;;;10.35;7.13;;;;;;;4.61;100.00;98783.75;5018150;28;20052;-60
2021/12/04 06:50:31;;;;;;;13.70;7.93;;;;;;;4.64;100.00;98774.69;5017748;28;20096;-60
2021/12/04 06:53:25;;;;;;;9.98;7.20;;;;;;;4.64;100.00;98774.69;5019067;28;20041;-61
2021/12/04 06:56:11;;;;;;;10.50;7.30;;;;;;;4.69;100.00;98770.66;5019124;28;20072;-61
2021/12/04 06:58:55;;;;;;;10.43;7.30;;;;;;;4.62;100.00;98768.72;5032800;28;20052;-61
2021/12/04 07:01:40;;;;;;;11.52;7.68;;;;;;;4.71;100.00;98773.16;5032507;28;20560;-60
2021/12/04 07:04:31;;;;;;;12.25;7.75;;;;;;;4.67;100.00;98767.31;5017816;28;20049;-60
2021/12/04 07:07:15;;;;;;;11.57;7.60;;;;;;;4.69;100.00;98767.19;5033157;28;20099;-61
2021/12/04 07:09:58;;;;;;;11.90;7.78;;;;;;;4.70;100.00;98764.38;5018332;28;20056;-61
2021/12/04 07:12:43;;;;;;;13.35;8.50;;;;;;;4.71;100.00;98765.22;5021509;28;20076;-61
2021/12/04 07:15:29;;;;;;;14.52;9.35;;;;;;;4.74;100.00;98767.56;5021666;28;20524;-61
2021/12/04 07:18:13;;;;;;;18.83;10.65;;;;;;;4.74;100.00;98770.22;5008079;28;20118;-61
2021/12/04 07:20:58;;;;;;;26.00;13.07;;;;;;;4.74;100.00;98759.66;5036525;28;20047;-61
2021/12/04 07:23:42;;;;;;;20.48;12.27;;;;;;;4.78;100.00;98767.16;5021620;28;20055;-61
2021/12/04 07:26:26;;;;;;;18.83;12.40;;;;;;;4.79;100.00;98757.44;5021591;28;20395;-61
2021/12/04 07:29:10;;;;;;;15.63;10.00;;;;;;;4.83;100.00;98758.78;5036573;28;20472;-61
2021/12/04 07:31:54;;;;;;;20.75;11.38;;;;;;;4.85;100.00;98757.69;5036108;28;20083;-61
2021/12/04 07:34:38;;;;;;;;;;;;;;;4.97;100.00;98751.22;5021703;28;20052;-61
2021/12/04 07:37:22;;;;;;;16.43;9.70;;;;;;;4.93;100.00;98750.69;5036340;28;20324;-61
2021/12/04 07:40:07;;;;;;;14.27;10.20;;;;;;;4.93;100.00;98755.16;5036548;28;20048;-61
2021/12/04 07:42:51;;;;;;;16.70;10.27;;;;;;;4.92;100.00;98755.28;5007387;28;20044;-61
2021/12/04 07:45:35;;;;;;;16.98;10.88;;;;;;;4.97;100.00;98750.41;5021117;28;20114;-61
2021/12/04 07:48:19;;;;;;;18.45;10.60;;;;;;;4.94;100.00;98749.72;5021044;28;20479;-61
2021/12/04 07:51:04;;;;;;;;;;;;;;;5.00;100.00;98751.78;5036557;28;20044;-61
2021/12/04 07:53:47;;;;;;;14.20;9.40;;;;;;;4.97;100.00;98745.13;5036049;28;19936;-61
2021/12/04 07:56:32;;;;;;;16.50;9.40;;;;;;;5.03;100.00;98746.19;5036039;28;20071;-61
2021/12/04 07:59:16;;;;;;;16.60;10.38;;;;;;;5.00;100.00;98745.66;5006867;28;20629;-61
2021/12/04 08:02:00;;;;;;;16.23;10.20;;;;;;;5.02;100.00;98739.25;5036044;28;20045;-59
2021/12/04 08:04:44;;;;;;;18.65;10.13;;;;;;;5.09;100.00;98745.63;5020768;28;20131;-60
2021/12/04 08:07:28;;;;;;;15.80;10.30;;;;;;;5.00;100.00;98730.66;5035740;28;20114;-60
2021/12/04 08:10:15;;;;;;;14.60;9.93;;;;;;;5.04;100.00;98726.72;5035580;28;20458;-60
2021/12/04 08:13:01;;;;;;;12.43;8.18;;;;;;;5.05;100.00;98733.66;5035856;28;20140;-57
2021/12/04 08:15:45;;;;;;;15.40;9.75;;;;;;;5.08;100.00;98722.84;5020848;28;20048;-61
2021/12/04 08:18:29;;;;;;;15.85;9.93;;;;;;;5.19;100.00;98719.16;5035250;28;20180;-61
2021/12/04 08:21:13;;;;;;;17.00;10.27;;;;;;;5.23;100.00;98721.34;5035339;28;20076;-57
2021/12/04 08:23:57;;;;;;;13.32;8.75;;;;;;;5.25;100.00;98714.09;5020389;28;20048;-61
2021/12/04 08:26:41;;;;;;;14.02;8.95;;;;;;;5.32;100.00;98712.53;5020430;28;20076;-61
2021/12/04 08:29:25;;;;;;;16.90;9.50;;;;;;;5.37;100.00;98718.22;5035301;28;20078;-60
2021/12/04 08:32:09;;;;;;;13.10;8.70;;;;;;;5.43;100.00;98719.44;5035176;28;20418;-61
2021/12/04 08:34:53;;;;;;;13.20;8.55;;;;;;;5.48;100.00;98718.00;5035231;28;20461;-61
2021/12/04 08:37:37;;;;;;;11.55;8.00;;;;;;;5.48;100.00;98723.28;5020199;28;20044;-60
2021/12/04 08:40:21;;;;;;;13.40;8.63;;;;;;;5.52;100.00;98722.00;5034796;28;20052;-61
2021/12/04 08:43:07;;;;;;;14.10;9.35;;;;;;;5.55;100.00;98718.22;5006123;28;20048;-61
2021/12/04 08:45:51;;;;;;;15.55;9.80;;;;;;;5.58;100.00;98721.41;5006221;28;20052;-61
2021/12/04 08:48:35;;;;;;;;;;;;;;;5.70;100.00;98712.28;5006347;28;20057;-61
2021/12/04 08:51:22;;;;;;;16.13;9.83;;;;;;;5.68;100.00;98711.59;5019635;28;19928;-61
2021/12/04 08:54:06;;;;;;;12.32;8.68;;;;;;;5.68;100.00;98705.47;5019653;28;20056;-62
2021/12/04 08:56:50;;;;;;;13.50;9.38;;;;;;;5.67;100.00;98709.94;5034525;28;20052;-61
2021/12/04 08:59:35;;;;;;;15.38;9.98;;;;;;;5.68;100.00;98716.03;5005853;28;20111;-61
2021/12/04 09:02:19;;;;;;;16.67;10.82;;;;;;;5.73;100.00;98709.31;5019546;28;20047;-60
2021/12/04 09:05:03;;;;;;;18.13;10.85;;;;;;;5.72;100.00;98702.38;5019642;28;20052;-60
2021/12/04 09:07:49;;;;;;;16.77;10.18;;;;;;;5.73;100.00;98703.22;5019938;28;20446;-61
2021/12/04 09:10:33;;;;;;;17.02;10.15;;;;;;;5.72;100.00;98702.38;5034305;28;20137;-61
2021/12/04 09:13:18;;;;;;;21.55;10.85;;;;;;;5.78;100.00;98711.50;5034541;28;20049;-60
2021/12/04 09:16:03;;;;;;;18.63;12.50;;;;;;;5.79;100.00;98692.03;5019285;28;20049;-60
2021/12/04 09:18:47;;;;;;;12.05;8.02;;;;;;;5.76;100.00;98698.41;5034442;28;20053;-61
2021/12/04 09:21:33;;;;;;;15.20;9.43;;;;;;;5.79;100.00;98700.81;5005360;28;20040;-61
2021/12/04 09:24:24;;;;;;;15.52;9.70;;;;;;;5.80;100.00;98689.25;5019448;28;20084;-59
2021/12/04 09:27:19;;;;;;;12.20;7.53;;;;;;;5.82;100.00;98682.00;5006476;28;20047;-59
2021/12/04 09:30:13;;;;;;;10.55;7.30;;;;;;;5.82;100.00;98682.00;5034126;28;20067;-59
2021/12/04 10:00:17;;;;;;;10.43;7.35;;;;;;;6.26;100.00;98656.38;5021075;28;20049;-60
2021/12/04 10:03:32;;;;;;;;;;;;;;;6.36;100.00;98639.38;5018811;28;20040;-60
2021/12/04 10:11:19;;;;;;;9.45;6.60;;;;;;;6.42;100.00;98637.91;5033553;28;19947;-60
2021/12/04 10:19:32;;;;;;;8.13;6.03;;;;;;;6.66;100.00;98614.22;4977928;28;20502;-66
2021/12/04 10:34:05;;;;;;;10.15;7.30;;;;;;;6.66;100.00;98590.41;5033027;28;20782;-66
2021/12/04 10:36:49;;;;;;;8.88;6.70;;;;;;;6.62;100.00;98581.94;5033283;28;20144;-66
2021/12/04 10:39:34;;;;;;;8.20;6.45;;;;;;;6.68;100.00;98580.47;5033413;28;20124;-65
2021/12/04 10:42:29;;;;;;;9.38;7.38;;;;;;;6.63;100.00;98573.00;5033146;28;20086;-66
2021/12/04 10:45:14;;;;;;;8.13;6.30;;;;;;;6.63;100.00;98567.72;5032095;28;20098;-66
2021/12/04 10:48:00;;;;;;;8.80;6.22;;;;;;;6.69;100.00;98556.47;5018198;28;20056;-65
2021/12/04 10:53:45;;;;;;;10.63;7.25;;;;;;;6.82;100.00;98546.25;5033146;28;20453;-65
2021/12/04 11:03:15;;;;;;;10.85;7.28;;;;;;;7.10;100.00;98525.59;5023896;28;20405;-67
2021/12/04 11:25:00;;;;;;;8.20;5.88;;;;;;;7.48;100.00;98480.69;5032307;28;20175;-65
2021/12/04 11:42:27;;;;;;;;;;;;;;;7.81;100.00;98467.22;5032971;28;20099;-65
2021/12/04 11:45:22;;;;;;;12.75;8.27;;;;;;;7.85;100.00;98459.75;5019720;28;19920;-66
2021/12/04 11:48:06;;;;;;;12.32;8.20;;;;;;;7.83;100.00;98453.78;5032155;28;20060;-65
2021/12/04 11:50:52;;;;;;;9.38;7.10;;;;;;;7.88;100.00;98448.78;5032148;28;20091;-65
2021/12/04 11:53:36;;;;;;;59.92;23.27;;;;;;;7.91;100.00;98437.81;5032390;28;20498;-66
2021/12/04 11:56:25;;;;;;;19.60;9.70;;;;;;;7.96;100.00;98448.75;5018299;28;20099;-66
2021/12/04 11:59:09;;;;;;;7.22;5.47;;;;;;;7.90;100.00;98437.00;5036217;28;20452;-66
2021/12/04 12:02:00;;;;;;;7.40;5.00;;;;;;;7.96;100.00;98431.00;5020781;28;20159;-65
2021/12/04 12:04:55;;;;;;;5.35;3.38;;;;;;;7.92;100.00;98436.81;5020682;28;20190;-66
2021/12/04 12:07:49;;;;;;;4.65;3.45;;;;;;;8.01;100.00;98422.53;5020563;28;20095;-66
2021/12/04 12:10:47;;;;;;;5.03;3.25;;;;;;;8.11;100.00;98421.34;5020677;28;20513;-67
2021/12/04 12:13:46;;;;;;;4.13;3.35;;;;;;;8.13;100.00;98419.31;5020927;28;20048;-67
2021/12/04 12:16:37;;;;;;;4.22;3.25;;;;;;;8.20;100.00;98417.69;5035943;28;20510;-67
2021/12/04 12:19:26;;;;;;;3.95;2.78;;;;;;;8.29;100.00;98413.13;5021205;28;20509;-67
2021/12/04 12:22:50;;;;;;;4.05;2.60;;;;;;;8.57;100.00;98401.84;5020472;28;20067;-67
2021/12/04 12:37:25;;;;;;;3.00;1.52;;;;;;;9.75;100.00;98372.63;5021546;28;20099;-66
2021/12/04 12:40:09;;;;;;;2.35;1.60;;;;;;;9.94;100.00;98361.44;5006583;28;20485;-65
2021/12/04 12:42:53;;;;;;;2.90;1.65;;;;;;;10.04;100.00;98360.19;5034945;28;20052;-66
2021/12/04 12:45:37;;;;;;;1.23;1.13;;;;;;;10.16;100.00;98381.78;5034890;28;20052;-66
2021/12/04 12:48:22;;;;;;;1.35;0.80;;;;;;;10.23;100.00;98381.69;5019939;28;20092;-67
2021/12/04 12:51:07;;;;;;;1.05;0.95;;;;;;;10.29;100.00;98410.25;5019705;28;20132;-66
2021/12/04 12:53:50;;;;;;;1.05;1.02;;;;;;;10.34;100.00;98375.06;5034957;28;20052;-67
2021/12/04 12:56:37;;;;;;;2.22;1.25;;;;;;;10.36;100.00;98371.19;5020024;28;20087;-66
2021/12/04 12:59:33;;;;;;;1.30;1.00;;;;;;;10.39;100.00;98365.50;5034911;28;20068;-65
2021/12/04 13:14:40;;;;;;;1.30;1.20;;;;;;;10.43;100.00;98364.09;5028706;28;20092;-65
2021/12/04 13:17:26;;;;;;;1.48;1.02;;;;;;;10.50;100.00;98361.50;5034561;28;20402;-65
2021/12/04 13:20:10;;;;;;;2.20;1.30;;;;;;;10.50;100.00;98380.16;5019177;28;20552;-65
2021/12/04 13:22:54;;;;;;;1.15;1.05;;;;;;;10.46;100.00;98389.53;5019371;28;20053;-66
2021/12/04 13:25:39;;;;;;;1.83;1.00;;;;;;;10.48;100.00;98356.38;5019100;28;20465;-65
2021/12/04 13:28:26;;;;;;;1.10;1.00;;;;;;;10.49;100.00;98363.34;5005497;28;20052;-64
2021/12/04 13:31:11;;;;;;;2.40;1.05;;;;;;;10.50;100.00;98365.00;5018941;28;20597;-66
2021/12/04 13:33:55;;;;;;;0.60;0.60;;;;;;;10.46;100.00;98360.25;5019103;28;20088;-65
2021/12/04 13:36:42;;;;;;;2.08;1.27;;;;;;;10.51;100.00;98357.81;5019451;28;20059;-64
2021/12/04 13:39:26;;;;;;;1.50;1.27;;;;;;;10.52;100.00;98354.97;5034142;28;20048;-65
2021/12/04 13:42:10;;;;;;;0.95;0.68;;;;;;;10.46;100.00;98360.25;5005254;28;20048;-65
2021/12/04 13:45:02;;;;;;;3.25;1.60;;;;;;;10.54;100.00;98357.47;5034070;28;20192;-65
2021/12/04 13:47:56;;;;;;;1.73;0.95;;;;;;;10.52;100.00;98368.28;5033947;28;20559;-65
2021/12/04 13:53:26;;;;;;;;;;;;;;;10.54;100.00;98381.44;5034129;28;20121;-65
2021/12/04 13:56:16;;;;;;;0.75;0.75;;;;;;;10.52;100.00;98370.97;5033379;28;19967;-65
2021/12/04 13:59:03;;;;;;;2.10;1.00;;;;;;;10.46;100.00;98378.88;5018519;28;20080;-65
2021/12/04 14:01:47;;;;;;;1.05;0.95;;;;;;;10.42;100.00;98378.44;5033519;28;20056;-66
2021/12/04 14:04:31;;;;;;;2.85;1.10;;;;;;;10.46;100.00;98371.69;5018616;28;20044;-65
2021/12/04 14:07:15;;;;;;;1.30;1.20;;;;;;;10.47;100.00;98384.00;5033294;28;20133;-67
2021/12/04 14:10:11;;;;;;;2.15;1.13;;;;;;;10.48;100.00;98377.69;5033454;28;20146;-64
2021/12/04 14:12:55;;;;;;;1.15;0.80;;;;;;;10.40;100.00;98375.13;5033178;28;20084;-67
2021/12/04 14:15:43;;;;;;;1.17;1.08;;;;;;;10.40;100.00;98388.47;5017974;28;20536;-66
2021/12/04 14:18:29;;;;;;;1.17;0.85;;;;;;;10.42;100.00;98374.94;5018683;28;20107;-67
2021/12/04 14:21:15;;;;;;;1.45;1.08;;;;;;;10.45;100.00;98404.69;5018548;28;20076;-68
2021/12/04 14:23:59;;;;;;;2.08;1.20;;;;;;;10.43;100.00;98385.41;5033146;28;20056;-68
2021/12/04 14:26:51;;;;;;;1.13;1.02;;;;;;;10.48;100.00;98414.97;5004352;28;20049;-67
2021/12/04 14:29:42;;;;;;;0.98;0.90;;;;;;;10.41;100.00;98394.59;5004755;28;20096;-67
2021/12/04 14:32:28;;;;;;;0.80;0.80;;;;;;;10.41;100.00;98403.41;5033059;28;20045;-67
2021/12/04 14:35:15;;;;;;;0.98;0.90;;;;;;;10.39;100.00;98409.94;5032790;28;20052;-66
2021/12/04 14:38:06;;;;;;;2.00;0.95;;;;;;;10.45;100.00;98409.19;5017821;28;20106;-66
2021/12/04 14:41:00;;;;;;;1.25;1.00;;;;;;;10.46;100.00;98401.00;5032916;28;20044;-67
2021/12/04 14:43:44;;;;;;;3.03;1.27;;;;;;;10.51;100.00;98398.63;5033215;28;20083;-67
2021/12/04 14:46:29;;;;;;;1.30;1.20;;;;;;;10.46;100.00;98395.69;5033004;28;20071;-68
2021/12/04 14:49:13;;;;;;;1.60;1.45;;;;;;;10.51;100.00;98403.94;5017659;28;20044;-68
2021/12/04 14:51:57;;;;;;;1.88;1.38;;;;;;;10.51;100.00;98403.94;5003579;28;20099;-67
2021/12/04 14:54:42;;;;;;;;;;;;;;;10.53;100.00;98411.75;5032964;28;20052;-66
2021/12/04 14:57:28;;;;;;;2.03;1.40;;;;;;;10.58;100.00;98407.50;5032515;28;20437;-66
2021/12/04 15:00:20;;;;;;;1.83;1.50;;;;;;;10.54;100.00;98408.88;5017770;28;20044;-67
2021/12/04 15:03:16;;;;;;;3.80;1.45;;;;;;;10.57;100.00;98419.16;5032699;28;20593;-67
2021/12/04 15:06:03;;;;;;;2.80;1.30;;;;;;;10.55;100.00;98405.19;5017584;28;20138;-66
2021/12/04 15:08:53;;;;;;;3.42;1.40;;;;;;;10.55;100.00;98399.88;5018180;28;20080;-67
2021/12/04 15:11:48;;;;;;;2.17;1.40;;;;;;;10.56;100.00;98406.03;5017624;28;20044;-67
2021/12/04 15:14:32;;;;;;;2.17;1.30;;;;;;;10.53;100.00;98423.22;5032463;28;20091;-67
2021/12/04 15:17:17;;;;;;;2.03;1.38;;;;;;;10.51;100.00;98422.59;5004104;28;20048;-66
2021/12/04 15:20:04;;;;;;;2.28;1.50;;;;;;;10.49;100.00;98427.28;5032862;28;20514;-67
2021/12/04 15:22:54;;;;;;;1.13;1.00;;;;;;;10.40;100.00;98423.09;5017516;28;20577;-67
2021/12/04 15:25:40;;;;;;;2.17;1.25;;;;;;;10.46;100.00;98430.31;5032480;28;20060;-64
2021/12/04 15:28:27;;;;;;;2.95;1.50;;;;;;;10.43;100.00;98444.00;5032536;28;20088;-66
2021/12/04 15:31:12;;;;;;;3.13;1.33;;;;;;;10.40;100.00;98428.41;5018461;28;20048;-66
2021/12/04 15:33:57;;;;;;;1.35;1.15;;;;;;;10.30;100.00;98417.22;5036393;28;20099;-66
2021/12/04 15:36:45;;;;;;;5.65;1.30;;;;;;;10.28;100.00;98423.75;5036280;28;20056;-67
2021/12/04 15:39:32;;;;;;;1.27;1.17;;;;;;;10.29;100.00;98431.56;5021547;28;20110;-66
2021/12/04 15:42:29;;;;;;;3.28;1.38;;;;;;;10.19;100.00;98427.53;5021751;28;20056;-66
2021/12/04 15:46:04;;;;;;;1.65;1.20;;;;;;;10.17;100.00;98440.19;5022846;28;20055;-66
2021/12/04 15:54:05;;;;;;;1.00;0.70;;;;;;;10.07;100.00;98444.13;5036213;28;20064;-65
2021/12/04 15:56:53;;;;;;;2.78;1.15;;;;;;;10.05;100.00;98438.19;5020747;28;20104;-66
2021/12/04 15:59:47;;;;;;;1.45;1.20;;;;;;;10.07;100.00;98452.97;5021064;28;20465;-65
2021/12/04 16:02:43;;;;;;;1.15;1.05;;;;;;;10.00;100.00;98445.88;5021631;28;20091;-65
2021/12/04 16:05:31;;;;;;;1.65;1.27;;;;;;;10.00;100.00;98453.88;5035509;28;20046;-65
2021/12/04 16:08:17;;;;;;;1.20;1.10;;;;;;;9.88;100.00;98472.13;5021247;28;20403;-66
2021/12/04 16:11:07;;;;;;;2.28;1.00;;;;;;;9.86;100.00;98447.53;5020659;28;20049;-66